sensor_id;sensor_type;location;lat;lon;timestamp;P1;durP1;ratioP1;P2;durP2;ratioP2
60100;SDS011;45978;53.646;55.930;2022-08-19T00:00:21;32.97;;;4.25;;
60100;SDS011;45978;53.646;55.930;2022-08-19T00:01:22;28.25;;;5.13;;
60100;SDS011;45978;53.646;55.930;2022-08-19T00:02:25;33.25;;;5.70;;
60100;SDS011;45978;53.646;55.930;2022-08-19T00:03:26;35.80;;;6.15;;
60100;SDS011;45978;53.646;55.930;2022-08-19T00:04:30;21.30;;;5.45;;
60100;SDS011;45978;53.646;55.930;2022-08-19T00:05:36;34.92;;;6.22;;
60100;SDS011;45978;53.646;55.930;2022-08-19T00:06:38;34.83;;;6.63;;
60100;SDS011;45978;53.646;55.930;2022-08-19T00:07:41;33.15;;;6.60;;
60100;SDS011;45978;53.646;55.930;2022-08-19T00:08:43;44.72;;;8.25;;
60100;SDS011;45978;53.646;55.930;2022-08-19T00:09:45;33.90;;;7.38;;
60100;SDS011;45978;53.646;55.930;2022-08-19T00:10:46;39.35;;;8.90;;
60100;SDS011;45978;53.646;55.930;2022-08-19T00:11:48;41.65;;;9.38;;
60100;SDS011;45978;53.646;55.930;2022-08-19T00:12:50;40.63;;;10.55;;
60100;SDS011;45978;53.646;55.930;2022-08-19T00:13:52;58.30;;;9.45;;
60100;SDS011;45978;53.646;55.930;2022-08-19T00:14:54;37.20;;;8.50;;
60100;SDS011;45978;53.646;55.930;2022-08-19T00:15:55;40.45;;;9.70;;
60100;SDS011;45978;53.646;55.930;2022-08-19T00:16:59;40.35;;;9.88;;
60100;SDS011;45978;53.646;55.930;2022-08-19T00:18:01;34.65;;;8.93;;
60100;SDS011;45978;53.646;55.930;2022-08-19T00:19:02;34.58;;;9.23;;
60100;SDS011;45978;53.646;55.930;2022-08-19T00:20:04;29.77;;;10.05;;
60100;SDS011;45978;53.646;55.930;2022-08-19T00:21:06;52.42;;;10.40;;
60100;SDS011;45978;53.646;55.930;2022-08-19T00:22:08;50.22;;;10.13;;
60100;SDS011;45978;53.646;55.930;2022-08-19T00:23:09;47.63;;;11.10;;
60100;SDS011;45978;53.646;55.930;2022-08-19T00:24:11;45.20;;;9.63;;
60100;SDS011;45978;53.646;55.930;2022-08-19T00:25:14;43.55;;;10.15;;
60100;SDS011;45978;53.646;55.930;2022-08-19T00:26:16;35.72;;;9.57;;
60100;SDS011;45978;53.646;55.930;2022-08-19T00:27:17;48.42;;;9.55;;
60100;SDS011;45978;53.646;55.930;2022-08-19T00:28:18;37.38;;;9.35;;
60100;SDS011;45978;53.646;55.930;2022-08-19T00:29:21;41.28;;;10.05;;
60100;SDS011;45978;53.646;55.930;2022-08-19T00:30:23;48.45;;;9.57;;
60100;SDS011;45978;53.646;55.930;2022-08-19T00:31:24;56.38;;;9.68;;
60100;SDS011;45978;53.646;55.930;2022-08-19T00:32:25;45.80;;;10.32;;
60100;SDS011;45978;53.646;55.930;2022-08-19T00:33:27;56.72;;;10.68;;
60100;SDS011;45978;53.646;55.930;2022-08-19T00:34:28;55.33;;;9.85;;
60100;SDS011;45978;53.646;55.930;2022-08-19T00:35:29;42.42;;;9.20;;
60100;SDS011;45978;53.646;55.930;2022-08-19T00:36:31;51.95;;;10.05;;
60100;SDS011;45978;53.646;55.930;2022-08-19T00:37:33;39.60;;;10.07;;
60100;SDS011;45978;53.646;55.930;2022-08-19T00:38:36;47.00;;;9.07;;
60100;SDS011;45978;53.646;55.930;2022-08-19T00:39:41;43.50;;;9.45;;
60100;SDS011;45978;53.646;55.930;2022-08-19T00:40:43;63.05;;;11.18;;
60100;SDS011;45978;53.646;55.930;2022-08-19T00:41:48;35.90;;;9.65;;
60100;SDS011;45978;53.646;55.930;2022-08-19T00:42:50;45.30;;;10.35;;
60100;SDS011;45978;53.646;55.930;2022-08-19T00:43:58;47.47;;;9.68;;
60100;SDS011;45978;53.646;55.930;2022-08-19T00:45:15;49.22;;;10.38;;
60100;SDS011;45978;53.646;55.930;2022-08-19T00:46:20;60.03;;;11.05;;
60100;SDS011;45978;53.646;55.930;2022-08-19T00:47:21;57.65;;;10.15;;
60100;SDS011;45978;53.646;55.930;2022-08-19T00:48:23;56.63;;;10.60;;
60100;SDS011;45978;53.646;55.930;2022-08-19T00:50:38;57.20;;;10.63;;
60100;SDS011;45978;53.646;55.930;2022-08-19T00:51:44;58.10;;;13.25;;
60100;SDS011;45978;53.646;55.930;2022-08-19T00:52:49;65.55;;;12.10;;
60100;SDS011;45978;53.646;55.930;2022-08-19T00:53:52;72.60;;;12.73;;
60100;SDS011;45978;53.646;55.930;2022-08-19T00:54:55;68.00;;;12.13;;
60100;SDS011;45978;53.646;55.930;2022-08-19T00:55:58;68.70;;;12.30;;
60100;SDS011;45978;53.646;55.930;2022-08-19T00:57:01;58.20;;;11.15;;
60100;SDS011;45978;53.646;55.930;2022-08-19T00:58:06;45.83;;;12.30;;
60100;SDS011;45978;53.646;55.930;2022-08-19T00:59:10;65.18;;;12.23;;
60100;SDS011;45978;53.646;55.930;2022-08-19T01:00:13;63.38;;;11.35;;
60100;SDS011;45978;53.646;55.930;2022-08-19T01:01:17;49.13;;;11.43;;
60100;SDS011;45978;53.646;55.930;2022-08-19T01:02:19;48.33;;;9.30;;
60100;SDS011;45978;53.646;55.930;2022-08-19T01:03:20;46.05;;;10.38;;
60100;SDS011;45978;53.646;55.930;2022-08-19T01:04:22;52.92;;;10.70;;
60100;SDS011;45978;53.646;55.930;2022-08-19T01:05:27;37.97;;;9.80;;
60100;SDS011;45978;53.646;55.930;2022-08-19T01:06:30;41.88;;;10.25;;
60100;SDS011;45978;53.646;55.930;2022-08-19T01:07:33;42.60;;;11.27;;
60100;SDS011;45978;53.646;55.930;2022-08-19T01:08:35;40.83;;;10.05;;
60100;SDS011;45978;53.646;55.930;2022-08-19T01:09:38;50.15;;;10.02;;
60100;SDS011;45978;53.646;55.930;2022-08-19T01:10:47;28.80;;;9.73;;
60100;SDS011;45978;53.646;55.930;2022-08-19T01:11:50;37.47;;;9.05;;
60100;SDS011;45978;53.646;55.930;2022-08-19T01:12:52;46.40;;;9.45;;
60100;SDS011;45978;53.646;55.930;2022-08-19T01:13:55;33.80;;;9.25;;
60100;SDS011;45978;53.646;55.930;2022-08-19T01:15:00;49.35;;;9.70;;
60100;SDS011;45978;53.646;55.930;2022-08-19T01:16:02;38.28;;;9.50;;
60100;SDS011;45978;53.646;55.930;2022-08-19T01:17:07;33.97;;;9.18;;
60100;SDS011;45978;53.646;55.930;2022-08-19T01:18:11;27.48;;;7.85;;
60100;SDS011;45978;53.646;55.930;2022-08-19T01:19:18;33.72;;;9.50;;
60100;SDS011;45978;53.646;55.930;2022-08-19T01:20:22;46.47;;;9.63;;
60100;SDS011;45978;53.646;55.930;2022-08-19T01:21:47;47.95;;;9.18;;
60100;SDS011;45978;53.646;55.930;2022-08-19T01:22:57;26.90;;;8.88;;
60100;SDS011;45978;53.646;55.930;2022-08-19T01:24:00;27.63;;;8.32;;
60100;SDS011;45978;53.646;55.930;2022-08-19T01:25:01;44.38;;;9.68;;
60100;SDS011;45978;53.646;55.930;2022-08-19T01:26:03;28.70;;;9.23;;
60100;SDS011;45978;53.646;55.930;2022-08-19T01:27:05;41.83;;;8.98;;
60100;SDS011;45978;53.646;55.930;2022-08-19T01:28:07;46.08;;;9.45;;
60100;SDS011;45978;53.646;55.930;2022-08-19T01:29:08;32.03;;;8.45;;
60100;SDS011;45978;53.646;55.930;2022-08-19T01:30:12;37.60;;;9.93;;
60100;SDS011;45978;53.646;55.930;2022-08-19T01:31:17;33.85;;;9.45;;
60100;SDS011;45978;53.646;55.930;2022-08-19T01:32:22;28.90;;;8.23;;
60100;SDS011;45978;53.646;55.930;2022-08-19T01:33:23;42.20;;;9.60;;
60100;SDS011;45978;53.646;55.930;2022-08-19T01:34:24;37.25;;;8.95;;
60100;SDS011;45978;53.646;55.930;2022-08-19T01:35:26;39.28;;;9.70;;
60100;SDS011;45978;53.646;55.930;2022-08-19T01:36:33;31.13;;;9.13;;
60100;SDS011;45978;53.646;55.930;2022-08-19T01:37:47;32.45;;;9.55;;
60100;SDS011;45978;53.646;55.930;2022-08-19T01:38:54;40.05;;;7.30;;
60100;SDS011;45978;53.646;55.930;2022-08-19T01:39:56;40.58;;;7.35;;
60100;SDS011;45978;53.646;55.930;2022-08-19T01:40:57;26.38;;;6.65;;
60100;SDS011;45978;53.646;55.930;2022-08-19T01:41:59;29.52;;;7.93;;
60100;SDS011;45978;53.646;55.930;2022-08-19T01:43:03;34.15;;;8.30;;
60100;SDS011;45978;53.646;55.930;2022-08-19T01:44:06;32.92;;;8.52;;
60100;SDS011;45978;53.646;55.930;2022-08-19T01:45:09;23.65;;;7.53;;
60100;SDS011;45978;53.646;55.930;2022-08-19T01:46:10;39.00;;;9.30;;
60100;SDS011;45978;53.646;55.930;2022-08-19T01:47:12;33.10;;;9.98;;
60100;SDS011;45978;53.646;55.930;2022-08-19T01:48:15;45.28;;;10.55;;
60100;SDS011;45978;53.646;55.930;2022-08-19T01:49:19;53.20;;;10.93;;
60100;SDS011;45978;53.646;55.930;2022-08-19T01:50:23;35.65;;;10.85;;
60100;SDS011;45978;53.646;55.930;2022-08-19T01:51:25;41.88;;;12.30;;
60100;SDS011;45978;53.646;55.930;2022-08-19T01:52:27;45.97;;;10.95;;
60100;SDS011;45978;53.646;55.930;2022-08-19T01:53:28;40.63;;;10.20;;
60100;SDS011;45978;53.646;55.930;2022-08-19T01:54:31;37.17;;;12.32;;
60100;SDS011;45978;53.646;55.930;2022-08-19T01:55:33;48.22;;;12.07;;
60100;SDS011;45978;53.646;55.930;2022-08-19T01:56:37;58.78;;;13.10;;
60100;SDS011;45978;53.646;55.930;2022-08-19T01:57:41;51.72;;;13.93;;
60100;SDS011;45978;53.646;55.930;2022-08-19T01:58:45;44.33;;;13.38;;
60100;SDS011;45978;53.646;55.930;2022-08-19T01:59:57;54.38;;;13.63;;
60100;SDS011;45978;53.646;55.930;2022-08-19T02:01:00;44.03;;;12.80;;
60100;SDS011;45978;53.646;55.930;2022-08-19T02:02:01;30.67;;;10.85;;
60100;SDS011;45978;53.646;55.930;2022-08-19T02:03:07;35.00;;;9.88;;
60100;SDS011;45978;53.646;55.930;2022-08-19T02:04:10;30.65;;;9.13;;
60100;SDS011;45978;53.646;55.930;2022-08-19T02:05:15;42.90;;;9.80;;
60100;SDS011;45978;53.646;55.930;2022-08-19T02:06:18;36.78;;;9.18;;
60100;SDS011;45978;53.646;55.930;2022-08-19T02:07:20;40.10;;;10.02;;
60100;SDS011;45978;53.646;55.930;2022-08-19T02:08:22;43.35;;;9.73;;
60100;SDS011;45978;53.646;55.930;2022-08-19T02:09:23;36.20;;;9.20;;
60100;SDS011;45978;53.646;55.930;2022-08-19T02:10:24;45.10;;;10.05;;
60100;SDS011;45978;53.646;55.930;2022-08-19T02:11:27;37.10;;;9.48;;
60100;SDS011;45978;53.646;55.930;2022-08-19T02:12:31;51.03;;;10.27;;
60100;SDS011;45978;53.646;55.930;2022-08-19T02:13:33;30.85;;;9.00;;
60100;SDS011;45978;53.646;55.930;2022-08-19T02:14:35;26.35;;;8.23;;
60100;SDS011;45978;53.646;55.930;2022-08-19T02:15:37;25.90;;;9.05;;
60100;SDS011;45978;53.646;55.930;2022-08-19T02:16:39;31.80;;;7.95;;
60100;SDS011;45978;53.646;55.930;2022-08-19T02:17:41;30.17;;;9.15;;
60100;SDS011;45978;53.646;55.930;2022-08-19T02:18:42;38.28;;;8.70;;
60100;SDS011;45978;53.646;55.930;2022-08-19T02:19:44;27.20;;;8.20;;
60100;SDS011;45978;53.646;55.930;2022-08-19T02:20:45;37.38;;;8.23;;
60100;SDS011;45978;53.646;55.930;2022-08-19T02:21:48;29.92;;;8.27;;
60100;SDS011;45978;53.646;55.930;2022-08-19T02:22:49;24.98;;;8.40;;
60100;SDS011;45978;53.646;55.930;2022-08-19T02:23:50;23.15;;;7.38;;
60100;SDS011;45978;53.646;55.930;2022-08-19T02:24:52;27.60;;;7.75;;
60100;SDS011;45978;53.646;55.930;2022-08-19T02:25:55;34.05;;;7.97;;
60100;SDS011;45978;53.646;55.930;2022-08-19T02:26:56;24.35;;;7.95;;
60100;SDS011;45978;53.646;55.930;2022-08-19T02:27:58;23.25;;;7.60;;
60100;SDS011;45978;53.646;55.930;2022-08-19T02:28:59;25.30;;;8.30;;
60100;SDS011;45978;53.646;55.930;2022-08-19T02:30:01;27.67;;;7.50;;
60100;SDS011;45978;53.646;55.930;2022-08-19T02:31:03;23.75;;;7.25;;
60100;SDS011;45978;53.646;55.930;2022-08-19T02:32:09;30.88;;;7.50;;
60100;SDS011;45978;53.646;55.930;2022-08-19T02:33:10;29.90;;;8.52;;
60100;SDS011;45978;53.646;55.930;2022-08-19T02:34:11;23.55;;;7.45;;
60100;SDS011;45978;53.646;55.930;2022-08-19T02:35:13;28.73;;;7.80;;
60100;SDS011;45978;53.646;55.930;2022-08-19T02:36:15;29.00;;;7.43;;
60100;SDS011;45978;53.646;55.930;2022-08-19T02:37:17;32.38;;;6.78;;
60100;SDS011;45978;53.646;55.930;2022-08-19T02:38:37;27.40;;;7.43;;
60100;SDS011;45978;53.646;55.930;2022-08-19T02:39:39;29.35;;;7.38;;
60100;SDS011;45978;53.646;55.930;2022-08-19T02:40:40;25.58;;;7.47;;
60100;SDS011;45978;53.646;55.930;2022-08-19T02:41:41;32.85;;;7.28;;
60100;SDS011;45978;53.646;55.930;2022-08-19T02:42:42;26.90;;;8.07;;
60100;SDS011;45978;53.646;55.930;2022-08-19T02:43:47;24.48;;;8.50;;
60100;SDS011;45978;53.646;55.930;2022-08-19T02:44:52;32.50;;;7.95;;
60100;SDS011;45978;53.646;55.930;2022-08-19T02:45:57;48.35;;;8.50;;
60100;SDS011;45978;53.646;55.930;2022-08-19T02:46:58;33.53;;;7.90;;
60100;SDS011;45978;53.646;55.930;2022-08-19T02:48:00;21.35;;;7.72;;
60100;SDS011;45978;53.646;55.930;2022-08-19T02:49:02;26.40;;;7.70;;
60100;SDS011;45978;53.646;55.930;2022-08-19T02:50:06;30.48;;;7.65;;
60100;SDS011;45978;53.646;55.930;2022-08-19T02:51:08;35.00;;;7.95;;
60100;SDS011;45978;53.646;55.930;2022-08-19T02:52:09;22.73;;;7.28;;
60100;SDS011;45978;53.646;55.930;2022-08-19T02:53:11;31.08;;;7.40;;
60100;SDS011;45978;53.646;55.930;2022-08-19T02:54:14;24.50;;;7.15;;
60100;SDS011;45978;53.646;55.930;2022-08-19T02:55:15;30.20;;;7.43;;
60100;SDS011;45978;53.646;55.930;2022-08-19T02:56:18;33.15;;;7.57;;
60100;SDS011;45978;53.646;55.930;2022-08-19T02:57:20;11.07;;;4.05;;
60100;SDS011;45978;53.646;55.930;2022-08-19T02:58:21;19.13;;;4.75;;
60100;SDS011;45978;53.646;55.930;2022-08-19T02:59:24;24.77;;;4.63;;
60100;SDS011;45978;53.646;55.930;2022-08-19T03:00:26;14.32;;;4.20;;
60100;SDS011;45978;53.646;55.930;2022-08-19T03:01:29;17.08;;;4.25;;
60100;SDS011;45978;53.646;55.930;2022-08-19T03:02:31;8.55;;;3.15;;
60100;SDS011;45978;53.646;55.930;2022-08-19T03:03:33;10.18;;;3.20;;
60100;SDS011;45978;53.646;55.930;2022-08-19T03:04:34;9.98;;;2.72;;
60100;SDS011;45978;53.646;55.930;2022-08-19T03:05:35;10.55;;;2.72;;
60100;SDS011;45978;53.646;55.930;2022-08-19T03:06:41;14.85;;;3.47;;
60100;SDS011;45978;53.646;55.930;2022-08-19T03:07:44;14.75;;;4.25;;
60100;SDS011;45978;53.646;55.930;2022-08-19T03:08:47;16.70;;;3.85;;
60100;SDS011;45978;53.646;55.930;2022-08-19T03:09:50;11.93;;;3.13;;
60100;SDS011;45978;53.646;55.930;2022-08-19T03:10:51;14.32;;;3.92;;
60100;SDS011;45978;53.646;55.930;2022-08-19T03:11:53;7.63;;;3.15;;
60100;SDS011;45978;53.646;55.930;2022-08-19T03:12:54;8.45;;;2.95;;
60100;SDS011;45978;53.646;55.930;2022-08-19T03:13:55;16.10;;;3.05;;
60100;SDS011;45978;53.646;55.930;2022-08-19T03:14:57;16.02;;;3.10;;
60100;SDS011;45978;53.646;55.930;2022-08-19T03:15:58;15.27;;;3.13;;
60100;SDS011;45978;53.646;55.930;2022-08-19T03:16:59;8.93;;;2.65;;
60100;SDS011;45978;53.646;55.930;2022-08-19T03:18:01;9.23;;;2.75;;
60100;SDS011;45978;53.646;55.930;2022-08-19T03:19:02;7.45;;;2.50;;
60100;SDS011;45978;53.646;55.930;2022-08-19T03:20:04;7.20;;;2.30;;
60100;SDS011;45978;53.646;55.930;2022-08-19T03:21:21;6.85;;;2.33;;
60100;SDS011;45978;53.646;55.930;2022-08-19T03:22:24;10.70;;;2.55;;
60100;SDS011;45978;53.646;55.930;2022-08-19T03:23:26;7.45;;;1.98;;
60100;SDS011;45978;53.646;55.930;2022-08-19T03:24:27;8.00;;;2.33;;
60100;SDS011;45978;53.646;55.930;2022-08-19T03:25:28;11.50;;;2.70;;
60100;SDS011;45978;53.646;55.930;2022-08-19T03:26:31;14.38;;;3.42;;
60100;SDS011;45978;53.646;55.930;2022-08-19T03:27:33;8.68;;;2.40;;
60100;SDS011;45978;53.646;55.930;2022-08-19T03:28:34;85.70;;;4.82;;
60100;SDS011;45978;53.646;55.930;2022-08-19T03:29:36;10.35;;;2.65;;
60100;SDS011;45978;53.646;55.930;2022-08-19T03:30:38;22.27;;;2.83;;
60100;SDS011;45978;53.646;55.930;2022-08-19T03:31:41;6.10;;;2.25;;
60100;SDS011;45978;53.646;55.930;2022-08-19T03:32:43;6.95;;;2.33;;
60100;SDS011;45978;53.646;55.930;2022-08-19T03:33:46;5.25;;;2.20;;
60100;SDS011;45978;53.646;55.930;2022-08-19T03:34:47;6.05;;;2.03;;
60100;SDS011;45978;53.646;55.930;2022-08-19T03:37:10;9.50;;;2.20;;
60100;SDS011;45978;53.646;55.930;2022-08-19T03:38:12;5.75;;;1.90;;
60100;SDS011;45978;53.646;55.930;2022-08-19T03:39:14;8.18;;;1.98;;
60100;SDS011;45978;53.646;55.930;2022-08-19T03:40:16;5.88;;;1.73;;
60100;SDS011;45978;53.646;55.930;2022-08-19T03:41:20;8.45;;;1.77;;
60100;SDS011;45978;53.646;55.930;2022-08-19T03:42:24;4.85;;;1.92;;
60100;SDS011;45978;53.646;55.930;2022-08-19T03:43:27;8.77;;;1.80;;
60100;SDS011;45978;53.646;55.930;2022-08-19T03:44:29;8.98;;;1.88;;
60100;SDS011;45978;53.646;55.930;2022-08-19T03:45:33;10.80;;;2.15;;
60100;SDS011;45978;53.646;55.930;2022-08-19T03:46:34;5.65;;;2.35;;
60100;SDS011;45978;53.646;55.930;2022-08-19T03:47:39;6.43;;;2.00;;
60100;SDS011;45978;53.646;55.930;2022-08-19T03:48:41;5.53;;;1.90;;
60100;SDS011;45978;53.646;55.930;2022-08-19T03:49:44;3.45;;;2.20;;
60100;SDS011;45978;53.646;55.930;2022-08-19T03:50:46;2.83;;;1.83;;
60100;SDS011;45978;53.646;55.930;2022-08-19T03:51:47;7.38;;;2.00;;
60100;SDS011;45978;53.646;55.930;2022-08-19T03:52:50;6.07;;;2.05;;
60100;SDS011;45978;53.646;55.930;2022-08-19T03:53:52;2.60;;;1.95;;
60100;SDS011;45978;53.646;55.930;2022-08-19T03:54:54;11.23;;;2.10;;
60100;SDS011;45978;53.646;55.930;2022-08-19T03:55:56;6.95;;;1.90;;
60100;SDS011;45978;53.646;55.930;2022-08-19T03:56:59;3.22;;;1.92;;
60100;SDS011;45978;53.646;55.930;2022-08-19T03:58:01;8.77;;;4.28;;
60100;SDS011;45978;53.646;55.930;2022-08-19T03:59:02;3.75;;;2.10;;
60100;SDS011;45978;53.646;55.930;2022-08-19T04:00:05;5.65;;;1.88;;
60100;SDS011;45978;53.646;55.930;2022-08-19T04:01:12;6.03;;;1.88;;
60100;SDS011;45978;53.646;55.930;2022-08-19T04:02:17;12.50;;;1.83;;
60100;SDS011;45978;53.646;55.930;2022-08-19T04:03:18;7.13;;;1.77;;
60100;SDS011;45978;53.646;55.930;2022-08-19T04:04:19;9.65;;;2.50;;
60100;SDS011;45978;53.646;55.930;2022-08-19T04:05:20;10.38;;;2.35;;
60100;SDS011;45978;53.646;55.930;2022-08-19T04:06:23;3.53;;;1.23;;
60100;SDS011;45978;53.646;55.930;2022-08-19T04:07:27;4.43;;;1.50;;
60100;SDS011;45978;53.646;55.930;2022-08-19T04:08:28;4.43;;;1.42;;
60100;SDS011;45978;53.646;55.930;2022-08-19T04:09:29;3.65;;;1.90;;
60100;SDS011;45978;53.646;55.930;2022-08-19T04:10:35;4.28;;;1.75;;
60100;SDS011;45978;53.646;55.930;2022-08-19T04:11:38;3.88;;;1.95;;
60100;SDS011;45978;53.646;55.930;2022-08-19T04:12:42;6.95;;;1.77;;
60100;SDS011;45978;53.646;55.930;2022-08-19T04:13:43;4.75;;;1.70;;
60100;SDS011;45978;53.646;55.930;2022-08-19T04:14:44;4.25;;;1.70;;
60100;SDS011;45978;53.646;55.930;2022-08-19T04:15:46;3.85;;;1.98;;
60100;SDS011;45978;53.646;55.930;2022-08-19T04:16:48;3.97;;;1.73;;
60100;SDS011;45978;53.646;55.930;2022-08-19T04:17:49;9.10;;;2.05;;
60100;SDS011;45978;53.646;55.930;2022-08-19T04:18:50;4.40;;;1.75;;
60100;SDS011;45978;53.646;55.930;2022-08-19T04:19:51;4.60;;;2.28;;
60100;SDS011;45978;53.646;55.930;2022-08-19T04:20:53;5.82;;;2.42;;
60100;SDS011;45978;53.646;55.930;2022-08-19T04:21:57;4.15;;;1.80;;
60100;SDS011;45978;53.646;55.930;2022-08-19T04:22:59;7.30;;;1.83;;
60100;SDS011;45978;53.646;55.930;2022-08-19T04:24:00;10.32;;;1.70;;
60100;SDS011;45978;53.646;55.930;2022-08-19T04:25:02;3.00;;;1.55;;
60100;SDS011;45978;53.646;55.930;2022-08-19T04:26:04;8.77;;;2.35;;
60100;SDS011;45978;53.646;55.930;2022-08-19T04:27:05;8.43;;;2.63;;
60100;SDS011;45978;53.646;55.930;2022-08-19T04:28:07;19.25;;;2.72;;
60100;SDS011;45978;53.646;55.930;2022-08-19T04:29:11;14.85;;;3.38;;
60100;SDS011;45978;53.646;55.930;2022-08-19T04:30:16;13.68;;;2.40;;
60100;SDS011;45978;53.646;55.930;2022-08-19T04:31:19;9.50;;;2.30;;
60100;SDS011;45978;53.646;55.930;2022-08-19T04:32:29;5.38;;;1.70;;
60100;SDS011;45978;53.646;55.930;2022-08-19T04:33:32;12.43;;;2.28;;
60100;SDS011;45978;53.646;55.930;2022-08-19T04:34:33;9.23;;;2.13;;
60100;SDS011;45978;53.646;55.930;2022-08-19T04:35:38;3.85;;;1.63;;
60100;SDS011;45978;53.646;55.930;2022-08-19T04:36:43;4.40;;;1.42;;
60100;SDS011;45978;53.646;55.930;2022-08-19T04:37:45;6.22;;;1.70;;
60100;SDS011;45978;53.646;55.930;2022-08-19T04:38:50;3.72;;;1.70;;
60100;SDS011;45978;53.646;55.930;2022-08-19T04:39:54;6.72;;;1.65;;
60100;SDS011;45978;53.646;55.930;2022-08-19T04:42:34;8.15;;;1.60;;
60100;SDS011;45978;53.646;55.930;2022-08-19T04:43:41;4.18;;;1.55;;
60100;SDS011;45978;53.646;55.930;2022-08-19T04:44:42;4.22;;;1.20;;
60100;SDS011;45978;53.646;55.930;2022-08-19T04:45:44;2.30;;;1.15;;
60100;SDS011;45978;53.646;55.930;2022-08-19T04:46:47;6.72;;;1.75;;
60100;SDS011;45978;53.646;55.930;2022-08-19T04:47:49;4.25;;;1.70;;
60100;SDS011;45978;53.646;55.930;2022-08-19T04:49:01;4.13;;;1.38;;
60100;SDS011;45978;53.646;55.930;2022-08-19T04:50:19;10.90;;;2.60;;
60100;SDS011;45978;53.646;55.930;2022-08-19T04:51:20;14.40;;;2.83;;
60100;SDS011;45978;53.646;55.930;2022-08-19T04:52:21;9.98;;;3.13;;
60100;SDS011;45978;53.646;55.930;2022-08-19T04:53:24;5.40;;;2.05;;
60100;SDS011;45978;53.646;55.930;2022-08-19T04:54:30;7.50;;;2.28;;
60100;SDS011;45978;53.646;55.930;2022-08-19T04:55:31;10.82;;;2.00;;
60100;SDS011;45978;53.646;55.930;2022-08-19T04:56:33;8.30;;;1.60;;
60100;SDS011;45978;53.646;55.930;2022-08-19T04:57:34;8.90;;;1.75;;
60100;SDS011;45978;53.646;55.930;2022-08-19T04:58:42;9.73;;;2.03;;
60100;SDS011;45978;53.646;55.930;2022-08-19T04:59:45;3.15;;;1.33;;
60100;SDS011;45978;53.646;55.930;2022-08-19T05:00:46;6.25;;;1.65;;
60100;SDS011;45978;53.646;55.930;2022-08-19T05:01:47;8.70;;;1.50;;
60100;SDS011;45978;53.646;55.930;2022-08-19T05:02:50;6.90;;;1.77;;
60100;SDS011;45978;53.646;55.930;2022-08-19T05:03:51;5.82;;;1.70;;
60100;SDS011;45978;53.646;55.930;2022-08-19T05:04:56;6.70;;;1.60;;
60100;SDS011;45978;53.646;55.930;2022-08-19T05:06:06;3.45;;;1.83;;
60100;SDS011;45978;53.646;55.930;2022-08-19T05:07:09;14.15;;;1.98;;
60100;SDS011;45978;53.646;55.930;2022-08-19T05:08:11;6.20;;;1.65;;
60100;SDS011;45978;53.646;55.930;2022-08-19T05:09:19;3.28;;;1.60;;
60100;SDS011;45978;53.646;55.930;2022-08-19T05:10:22;7.45;;;1.70;;
60100;SDS011;45978;53.646;55.930;2022-08-19T05:11:28;6.70;;;1.70;;
60100;SDS011;45978;53.646;55.930;2022-08-19T05:12:31;4.38;;;1.60;;
60100;SDS011;45978;53.646;55.930;2022-08-19T05:13:32;6.25;;;1.95;;
60100;SDS011;45978;53.646;55.930;2022-08-19T05:14:34;13.20;;;2.22;;
60100;SDS011;45978;53.646;55.930;2022-08-19T05:15:37;8.13;;;2.05;;
60100;SDS011;45978;53.646;55.930;2022-08-19T05:16:39;5.65;;;2.05;;
60100;SDS011;45978;53.646;55.930;2022-08-19T05:17:40;8.27;;;2.33;;
60100;SDS011;45978;53.646;55.930;2022-08-19T05:19:02;3.05;;;1.80;;
60100;SDS011;45978;53.646;55.930;2022-08-19T05:20:21;15.88;;;2.40;;
60100;SDS011;45978;53.646;55.930;2022-08-19T05:21:41;3.97;;;1.90;;
60100;SDS011;45978;53.646;55.930;2022-08-19T05:23:03;1.95;;;1.58;;
60100;SDS011;45978;53.646;55.930;2022-08-19T05:24:04;3.58;;;1.90;;
60100;SDS011;45978;53.646;55.930;2022-08-19T05:25:13;3.75;;;2.13;;
60100;SDS011;45978;53.646;55.930;2022-08-19T05:26:19;10.90;;;2.50;;
60100;SDS011;45978;53.646;55.930;2022-08-19T05:27:20;9.60;;;2.13;;
60100;SDS011;45978;53.646;55.930;2022-08-19T05:28:21;4.93;;;2.25;;
60100;SDS011;45978;53.646;55.930;2022-08-19T05:29:23;6.13;;;1.80;;
60100;SDS011;45978;53.646;55.930;2022-08-19T05:30:29;14.60;;;2.15;;
60100;SDS011;45978;53.646;55.930;2022-08-19T05:31:30;6.00;;;1.52;;
60100;SDS011;45978;53.646;55.930;2022-08-19T05:32:32;6.25;;;1.50;;
60100;SDS011;45978;53.646;55.930;2022-08-19T05:33:33;4.63;;;1.40;;
60100;SDS011;45978;53.646;55.930;2022-08-19T05:34:36;6.47;;;1.48;;
60100;SDS011;45978;53.646;55.930;2022-08-19T05:35:38;6.28;;;1.80;;
60100;SDS011;45978;53.646;55.930;2022-08-19T05:36:42;7.20;;;1.70;;
60100;SDS011;45978;53.646;55.930;2022-08-19T05:37:45;6.00;;;2.20;;
60100;SDS011;45978;53.646;55.930;2022-08-19T05:38:46;4.22;;;1.35;;
60100;SDS011;45978;53.646;55.930;2022-08-19T05:39:48;4.00;;;2.20;;
60100;SDS011;45978;53.646;55.930;2022-08-19T05:40:49;6.07;;;2.30;;
60100;SDS011;45978;53.646;55.930;2022-08-19T05:41:52;22.77;;;4.03;;
60100;SDS011;45978;53.646;55.930;2022-08-19T05:42:59;13.15;;;3.20;;
60100;SDS011;45978;53.646;55.930;2022-08-19T05:44:01;9.32;;;3.45;;
60100;SDS011;45978;53.646;55.930;2022-08-19T05:45:06;7.60;;;2.50;;
60100;SDS011;45978;53.646;55.930;2022-08-19T05:46:08;6.93;;;1.85;;
60100;SDS011;45978;53.646;55.930;2022-08-19T05:47:18;7.05;;;2.20;;
60100;SDS011;45978;53.646;55.930;2022-08-19T05:48:20;9.02;;;2.28;;
60100;SDS011;45978;53.646;55.930;2022-08-19T05:49:22;8.23;;;2.92;;
60100;SDS011;45978;53.646;55.930;2022-08-19T05:50:24;14.98;;;3.10;;
60100;SDS011;45978;53.646;55.930;2022-08-19T05:51:28;8.80;;;2.00;;
60100;SDS011;45978;53.646;55.930;2022-08-19T05:52:29;7.38;;;2.22;;
60100;SDS011;45978;53.646;55.930;2022-08-19T05:53:30;10.60;;;2.53;;
60100;SDS011;45978;53.646;55.930;2022-08-19T05:54:32;4.43;;;1.75;;
60100;SDS011;45978;53.646;55.930;2022-08-19T05:55:33;6.95;;;1.90;;
60100;SDS011;45978;53.646;55.930;2022-08-19T05:56:35;2.80;;;1.83;;
60100;SDS011;45978;53.646;55.930;2022-08-19T05:57:39;3.50;;;1.85;;
60100;SDS011;45978;53.646;55.930;2022-08-19T05:58:40;9.05;;;1.60;;
60100;SDS011;45978;53.646;55.930;2022-08-19T05:59:42;3.08;;;1.50;;
60100;SDS011;45978;53.646;55.930;2022-08-19T06:00:46;3.35;;;1.40;;
60100;SDS011;45978;53.646;55.930;2022-08-19T06:01:48;7.43;;;1.88;;
60100;SDS011;45978;53.646;55.930;2022-08-19T06:02:51;6.50;;;1.92;;
60100;SDS011;45978;53.646;55.930;2022-08-19T06:03:52;10.50;;;1.90;;
60100;SDS011;45978;53.646;55.930;2022-08-19T06:04:54;5.90;;;1.67;;
60100;SDS011;45978;53.646;55.930;2022-08-19T06:05:55;14.55;;;2.70;;
60100;SDS011;45978;53.646;55.930;2022-08-19T06:06:56;8.13;;;2.15;;
60100;SDS011;45978;53.646;55.930;2022-08-19T06:07:58;4.88;;;1.63;;
60100;SDS011;45978;53.646;55.930;2022-08-19T06:09:00;7.03;;;1.90;;
60100;SDS011;45978;53.646;55.930;2022-08-19T06:10:06;4.18;;;1.63;;
60100;SDS011;45978;53.646;55.930;2022-08-19T06:11:20;6.35;;;1.98;;
60100;SDS011;45978;53.646;55.930;2022-08-19T06:12:22;8.93;;;1.80;;
60100;SDS011;45978;53.646;55.930;2022-08-19T06:13:29;8.00;;;1.77;;
60100;SDS011;45978;53.646;55.930;2022-08-19T06:14:31;7.43;;;2.33;;
60100;SDS011;45978;53.646;55.930;2022-08-19T06:15:34;3.42;;;2.30;;